< < Back
Terminal Aerodrome Forecast


Current Version              Previous Versions:   1  2  3  4  5  6  7  8  9  

Terminal Aerodrome Forecast

254
FTUS44 KBMX 052326
TAFBHM
TAF
KBHM 052326Z 0600/0624 03003KT P6SM SKC
     FM061600 02005KT P6SM BKN250=



Latest METAR

371
SAUS70 KWBC 061800 RRD
MTRBHM
METAR KBHM 061753Z 02004KT 10SM FEW150 BKN200 09/M07 A3036 RMK AO2
SLP282 T00891072 10089 21011 58014


USA.gov is the U.S. government's official web portal to all federal, state and local government web resources and services.